createdAt,value
2022-08-11T00:01:22.356Z,19.48
2022-08-11T00:03:56.458Z,19.51
2022-08-11T00:06:26.985Z,19.49
2022-08-11T00:08:55.792Z,19.47
2022-08-11T00:11:34.707Z,19.44
2022-08-11T00:14:05.521Z,19.39
2022-08-11T00:16:36.294Z,19.37
2022-08-11T00:19:04.630Z,19.31
2022-08-11T00:22:04.637Z,19.33
2022-08-11T00:24:53.540Z,19.23
2022-08-11T00:27:33.497Z,19.22
2022-08-11T00:30:06.530Z,19.11
2022-08-11T00:32:36.331Z,19.07
2022-08-11T00:35:54.636Z,19.03
2022-08-11T00:38:00.687Z,19.07
2022-08-11T00:40:39.387Z,18.96
2022-08-11T00:43:19.942Z,18.97
2022-08-11T00:46:11.549Z,18.94
2022-08-11T00:48:50.531Z,18.70
2022-08-11T00:51:56.611Z,18.50
2022-08-11T00:55:01.272Z,18.91
2022-08-11T00:58:06.833Z,18.67
2022-08-11T01:00:52.428Z,18.64
2022-08-11T01:03:41.738Z,18.63
2022-08-11T01:06:39.589Z,18.66
2022-08-11T01:09:25.478Z,18.50
2022-08-11T01:12:19.764Z,18.60
2022-08-11T01:15:25.691Z,18.57
2022-08-11T01:18:28.339Z,18.38
2022-08-11T01:21:35.383Z,18.39
2022-08-11T01:25:00.966Z,18.29
2022-08-11T01:28:13.815Z,18.35
2022-08-11T01:31:23.819Z,18.31
2022-08-11T01:34:21.009Z,18.28
2022-08-11T01:37:03.335Z,18.18
2022-08-11T01:40:16.371Z,18.07
2022-08-11T01:43:55.440Z,17.75
2022-08-11T01:46:29.115Z,17.92
2022-08-11T01:50:06.778Z,17.93
2022-08-11T01:52:18.608Z,17.94
2022-08-11T01:54:54.316Z,17.82
2022-08-11T01:57:38.606Z,17.73
2022-08-11T02:00:12.685Z,17.75
2022-08-11T02:02:53.894Z,17.74
2022-08-11T02:05:48.291Z,17.75
2022-08-11T02:08:35.264Z,17.54
2022-08-11T02:11:31.044Z,17.65
2022-08-11T02:14:12.700Z,17.64
2022-08-11T02:17:00.195Z,17.66
2022-08-11T02:20:01.449Z,17.64
2022-08-11T02:22:59.801Z,17.61
2022-08-11T02:25:41.184Z,17.54
2022-08-11T02:28:23.985Z,17.42
2022-08-11T02:32:24.093Z,17.42
2022-08-11T02:34:15.997Z,17.42
2022-08-11T02:36:51.903Z,17.32
2022-08-11T02:39:25.001Z,17.32
2022-08-11T02:42:32.587Z,17.24
2022-08-11T02:45:33.294Z,17.27
2022-08-11T02:48:31.909Z,17.20
2022-08-11T02:51:11.284Z,17.15
2022-08-11T02:53:54.478Z,17.14
2022-08-11T02:56:44.338Z,17.13
2022-08-11T02:59:53.410Z,17.14
2022-08-11T03:02:40.581Z,17.12
2022-08-11T03:05:27.493Z,17.12
2022-08-11T03:08:30.414Z,17.07
2022-08-11T03:11:24.024Z,17.06
2022-08-11T03:14:25.416Z,17.04
2022-08-11T03:17:04.337Z,17.03
2022-08-11T03:19:41.394Z,17.03
2022-08-11T03:22:14.345Z,17.01
2022-08-11T03:24:55.534Z,17.03
2022-08-11T03:27:40.385Z,17.01
2022-08-11T03:30:17.298Z,16.97
2022-08-11T03:33:27.191Z,16.96
2022-08-11T03:36:22.547Z,16.94
2022-08-11T03:39:07.258Z,16.97
2022-08-11T03:42:02.591Z,17.03
2022-08-11T03:44:49.024Z,16.92
2022-08-11T03:47:35.133Z,16.97
2022-08-11T03:50:14.548Z,16.90
2022-08-11T03:52:52.764Z,16.92
2022-08-11T03:55:34.670Z,16.88
2022-08-11T03:58:42.088Z,16.93
2022-08-11T04:01:56.142Z,16.89
2022-08-11T04:05:19.652Z,17.06
2022-08-11T04:08:23.313Z,16.96
2022-08-11T04:11:24.921Z,16.93
2022-08-11T04:15:04.994Z,16.97
2022-08-11T04:18:21.906Z,16.90
2022-08-11T04:21:12.868Z,16.87
2022-08-11T04:24:39.571Z,16.85
2022-08-11T04:29:02.227Z,16.85
2022-08-11T04:31:52.407Z,16.80
2022-08-11T04:34:53.218Z,16.91
2022-08-11T04:37:44.215Z,16.93
2022-08-11T04:40:50.048Z,17.09
2022-08-11T04:44:02.509Z,16.95
2022-08-11T04:46:58.715Z,16.97
2022-08-11T04:49:58.392Z,16.98
2022-08-11T04:53:16.980Z,17.03
2022-08-11T04:56:26.357Z,17.09
2022-08-11T04:59:47.159Z,17.18
2022-08-11T05:03:02.314Z,17.15
2022-08-11T05:05:56.466Z,17.22
2022-08-11T05:09:04.298Z,17.23
2022-08-11T05:11:48.039Z,17.29
2022-08-11T05:14:50.710Z,17.37
2022-08-11T05:17:51.002Z,17.58
2022-08-11T05:20:36.621Z,17.88
2022-08-11T05:23:25.929Z,18.07
2022-08-11T05:26:46.017Z,18.46
2022-08-11T05:29:46.062Z,19.08
2022-08-11T05:32:36.771Z,19.73
2022-08-11T05:35:08.750Z,19.94
2022-08-11T05:37:58.185Z,20.30
2022-08-11T05:40:51.163Z,20.43
2022-08-11T05:44:20.812Z,20.94
2022-08-11T05:46:47.708Z,21.61
2022-08-11T05:49:35.626Z,21.97
2022-08-11T05:52:28.128Z,22.25
2022-08-11T05:55:22.451Z,22.41
2022-08-11T05:57:56.019Z,22.58
2022-08-11T06:00:24.658Z,22.56
2022-08-11T06:02:55.882Z,22.43
2022-08-11T06:05:38.210Z,22.59
2022-08-11T06:08:16.168Z,22.70
2022-08-11T06:10:46.283Z,23.00
2022-08-11T06:13:17.321Z,23.23
2022-08-11T06:15:47.296Z,23.10
2022-08-11T06:18:18.514Z,23.18
2022-08-11T06:20:51.916Z,23.22
2022-08-11T06:23:24.048Z,23.62
2022-08-11T06:25:53.110Z,23.90
2022-08-11T06:28:34.202Z,24.12
2022-08-11T06:31:04.573Z,25.17
2022-08-11T06:33:36.948Z,25.09
2022-08-11T06:36:12.158Z,25.36
2022-08-11T06:38:57.908Z,25.48
2022-08-11T06:41:31.746Z,26.46
2022-08-11T06:44:17.922Z,26.68
2022-08-11T06:46:50.887Z,26.78
2022-08-11T06:49:39.727Z,27.39
2022-08-11T06:52:34.777Z,27.91
2022-08-11T06:55:55.664Z,28.46
2022-08-11T06:58:17.953Z,28.63
2022-08-11T07:00:48.683Z,28.53
2022-08-11T07:03:20.208Z,29.23
2022-08-11T07:05:52.027Z,29.37
2022-08-11T07:09:10.478Z,29.64
2022-08-11T07:12:27.807Z,29.92
2022-08-11T07:15:15.589Z,30.08
2022-08-11T07:18:10.602Z,30.40
2022-08-11T07:21:02.130Z,30.47
2022-08-11T07:23:52.741Z,30.88
2022-08-11T07:26:42.189Z,30.72
2022-08-11T07:29:14.795Z,31.45
2022-08-11T07:31:50.228Z,32.05
2022-08-11T07:34:22.702Z,32.17
2022-08-11T07:36:54.791Z,33.05
2022-08-11T07:39:25.652Z,32.78
2022-08-11T07:41:58.835Z,32.91
2022-08-11T07:44:34.643Z,33.61
2022-08-11T07:47:21.600Z,33.03
2022-08-11T07:50:12.645Z,32.34
2022-08-11T07:52:41.245Z,32.88
2022-08-11T07:55:14.587Z,33.50
2022-08-11T07:58:16.035Z,33.37
2022-08-11T08:01:22.458Z,34.01
2022-08-11T08:04:10.000Z,34.48
2022-08-11T08:06:57.004Z,34.91
2022-08-11T08:09:45.678Z,34.79
2022-08-11T08:12:32.935Z,34.35
2022-08-11T08:15:26.196Z,34.67
2022-08-11T08:18:09.597Z,34.97
2022-08-11T08:20:50.898Z,35.48
2022-08-11T08:23:33.035Z,35.45
2022-08-11T08:26:04.867Z,36.13
2022-08-11T08:28:34.796Z,35.13
2022-08-11T08:31:02.653Z,35.44
2022-08-11T08:33:33.608Z,37.19
2022-08-11T08:36:12.642Z,36.09
2022-08-11T08:38:49.355Z,35.73
2022-08-11T08:41:23.374Z,35.95
2022-08-11T08:43:56.427Z,35.94
2022-08-11T08:46:35.889Z,34.39
2022-08-11T08:49:06.904Z,36.21
2022-08-11T08:52:01.044Z,36.02
2022-08-11T08:54:35.670Z,37.20
2022-08-11T08:57:05.413Z,36.07
2022-08-11T08:59:47.891Z,35.93
2022-08-11T09:02:33.550Z,34.31
2022-08-11T09:05:05.263Z,34.56
2022-08-11T09:07:39.680Z,34.52
2022-08-11T09:10:10.782Z,34.66
2022-08-11T09:12:42.275Z,35.37
2022-08-11T09:15:12.869Z,36.29
2022-08-11T09:17:45.075Z,34.68
2022-08-11T09:20:19.467Z,34.88
2022-08-11T09:29:45.705Z,34.98
2022-08-11T09:32:20.432Z,34.38
2022-08-11T09:34:48.879Z,33.33
2022-08-11T09:37:54.442Z,34.35
2022-08-11T09:40:33.846Z,34.52
2022-08-11T09:43:22.252Z,34.38
2022-08-11T09:45:55.431Z,34.46
2022-08-11T09:48:25.867Z,35.24
2022-08-11T09:50:57.903Z,34.37
2022-08-11T09:53:35.728Z,34.35
2022-08-11T09:56:30.992Z,34.27
2022-08-11T09:59:04.369Z,35.29
2022-08-11T10:01:41.909Z,35.35
2022-08-11T10:04:16.623Z,35.40
2022-08-11T10:07:05.587Z,35.76
2022-08-11T10:09:40.692Z,35.78
2022-08-11T10:12:13.068Z,35.70
2022-08-11T10:15:05.134Z,34.59
2022-08-11T10:17:39.658Z,35.23
2022-08-11T10:20:09.977Z,36.11
2022-08-11T10:22:56.323Z,36.44
2022-08-11T10:25:57.632Z,37.32
2022-08-11T10:28:33.689Z,37.01
2022-08-11T10:31:38.977Z,35.86
2022-08-11T10:34:24.236Z,34.98
2022-08-11T10:36:56.147Z,34.35
2022-08-11T10:39:25.121Z,35.36
2022-08-11T10:42:25.516Z,34.70
2022-08-11T10:45:04.762Z,34.91
2022-08-11T10:47:35.211Z,35.32
2022-08-11T10:50:26.568Z,36.34
2022-08-11T10:53:17.878Z,36.73
2022-08-11T10:56:06.871Z,34.75
2022-08-11T10:58:47.343Z,34.15
2022-08-11T11:01:17.060Z,34.41
2022-08-11T11:03:46.601Z,35.83
2022-08-11T11:06:28.148Z,35.00
2022-08-11T11:09:04.752Z,36.00
2022-08-11T11:11:56.820Z,36.02
2022-08-11T11:14:56.419Z,36.48
2022-08-11T11:17:47.882Z,36.88
2022-08-11T11:20:34.609Z,36.23
2022-08-11T11:23:16.806Z,36.52
2022-08-11T11:26:10.826Z,36.17
2022-08-11T11:29:11.148Z,36.61
2022-08-11T11:31:52.314Z,36.77
2022-08-11T11:34:53.105Z,34.74
2022-08-11T11:37:24.168Z,35.26
2022-08-11T11:39:55.378Z,35.24
2022-08-11T11:42:24.064Z,35.08
2022-08-11T11:44:55.830Z,34.69
2022-08-11T11:47:25.248Z,34.67
2022-08-11T11:49:54.680Z,34.99
2022-08-11T11:52:23.674Z,35.69
2022-08-11T11:54:56.389Z,35.53
2022-08-11T11:57:58.351Z,35.98
2022-08-11T12:00:45.741Z,36.34
2022-08-11T12:03:14.983Z,34.64
2022-08-11T12:05:48.554Z,33.97
2022-08-11T12:08:18.692Z,33.22
2022-08-11T12:10:51.033Z,32.79
2022-08-11T12:13:37.357Z,32.74
2022-08-11T12:16:34.148Z,32.37
2022-08-11T12:19:01.842Z,32.36
2022-08-11T12:21:33.063Z,31.83
2022-08-11T12:24:20.964Z,32.27
2022-08-11T12:27:16.184Z,32.62
2022-08-11T12:29:52.853Z,32.45
2022-08-11T12:32:25.530Z,31.40
2022-08-11T12:34:56.979Z,31.55
2022-08-11T12:37:31.962Z,31.49
2022-08-11T12:40:49.572Z,31.69
2022-08-11T12:43:40.062Z,31.54
2022-08-11T12:46:11.467Z,31.85
2022-08-11T12:49:04.177Z,31.25
2022-08-11T12:52:11.397Z,31.33
2022-08-11T12:54:52.245Z,31.36
2022-08-11T12:57:44.996Z,31.17
2022-08-11T13:00:34.529Z,31.30
2022-08-11T13:03:25.838Z,30.92
2022-08-11T13:05:56.830Z,30.94
2022-08-11T13:08:29.825Z,31.52
2022-08-11T13:11:19.226Z,31.63
2022-08-11T13:13:52.936Z,31.74
2022-08-11T13:16:31.809Z,32.01
2022-08-11T13:19:01.786Z,31.37
2022-08-11T13:21:31.445Z,31.65
2022-08-11T13:24:03.696Z,31.58
2022-08-11T13:26:47.339Z,31.51
2022-08-11T13:29:20.913Z,31.29
2022-08-11T13:31:51.913Z,31.23
2022-08-11T13:34:21.923Z,31.06
2022-08-11T13:36:53.144Z,30.93
2022-08-11T13:39:24.209Z,31.51
2022-08-11T13:41:54.640Z,31.12
2022-08-11T13:44:25.819Z,31.07
2022-08-11T13:47:01.764Z,31.22
2022-08-11T13:49:31.566Z,31.24
2022-08-11T13:52:00.391Z,31.39
2022-08-11T13:54:31.137Z,31.33
2022-08-11T13:57:08.334Z,31.15
2022-08-11T13:59:51.990Z,31.04
2022-08-11T14:02:30.603Z,30.85
2022-08-11T14:05:07.187Z,30.99
2022-08-11T14:07:40.240Z,30.99
2022-08-11T14:10:10.242Z,30.99
2022-08-11T14:13:00.190Z,30.89
2022-08-11T14:15:32.410Z,30.64
2022-08-11T14:18:05.517Z,30.78
2022-08-11T14:20:50.593Z,30.69
2022-08-11T14:23:25.177Z,31.11
2022-08-11T14:26:10.694Z,30.97
2022-08-11T14:31:01.203Z,30.73
2022-08-11T14:33:58.154Z,30.80
2022-08-11T14:36:22.620Z,30.70
2022-08-11T14:38:53.606Z,30.86
2022-08-11T14:42:11.067Z,30.92
2022-08-11T14:44:49.504Z,30.95
2022-08-11T14:47:24.435Z,31.11
2022-08-11T14:50:02.575Z,30.95
2022-08-11T14:52:49.766Z,30.85
2022-08-11T14:55:36.863Z,30.72
2022-08-11T14:58:06.457Z,30.92
2022-08-11T15:00:35.949Z,31.04
2022-08-11T15:03:12.738Z,30.89
2022-08-11T15:05:56.616Z,31.06
2022-08-11T15:08:46.712Z,31.05
2022-08-11T15:11:31.994Z,30.96
2022-08-11T15:14:02.265Z,31.11
2022-08-11T15:16:48.508Z,30.82
2022-08-11T15:19:21.294Z,30.95
2022-08-11T15:22:08.201Z,30.95
2022-08-11T15:24:38.905Z,30.85
2022-08-11T15:27:30.368Z,30.86
2022-08-11T15:30:32.519Z,30.59
2022-08-11T15:33:23.465Z,30.84
2022-08-11T15:36:12.104Z,30.87
2022-08-11T15:38:44.206Z,30.84
2022-08-11T15:41:38.823Z,30.81
2022-08-11T15:45:08.311Z,30.74
2022-08-11T15:47:42.266Z,30.70
2022-08-11T15:50:15.933Z,30.55
2022-08-11T15:52:53.720Z,30.65
2022-08-11T15:55:26.158Z,30.55
2022-08-11T15:58:13.760Z,30.46
2022-08-11T16:01:09.041Z,30.42
2022-08-11T16:04:07.239Z,30.46
2022-08-11T16:06:42.844Z,30.59
2022-08-11T16:09:24.609Z,30.49
2022-08-11T16:11:57.854Z,30.57
2022-08-11T16:14:47.684Z,30.58
2022-08-11T16:17:18.595Z,30.63
2022-08-11T16:19:49.827Z,30.48
2022-08-11T16:22:28.484Z,30.38
2022-08-11T16:27:06.207Z,30.37
2022-08-11T16:27:50.983Z,30.44
2022-08-11T16:30:19.875Z,30.34
2022-08-11T16:32:52.992Z,30.36
2022-08-11T16:35:43.301Z,30.29
2022-08-11T16:38:31.744Z,30.27
2022-08-11T16:41:02.553Z,30.08
2022-08-11T16:43:51.527Z,30.00
2022-08-11T16:46:40.902Z,29.91
2022-08-11T16:49:13.335Z,29.86
2022-08-11T16:51:45.707Z,29.80
2022-08-11T16:54:14.609Z,29.79
2022-08-11T16:56:48.960Z,29.71
2022-08-11T16:59:20.282Z,29.72
2022-08-11T17:01:54.569Z,29.74
2022-08-11T17:04:48.422Z,29.70
2022-08-11T17:07:41.722Z,29.63
2022-08-11T17:10:51.328Z,29.62
2022-08-11T17:13:29.097Z,29.54
2022-08-11T17:16:11.794Z,29.52
2022-08-11T17:18:46.893Z,29.45
2022-08-11T17:21:27.334Z,29.41
2022-08-11T17:23:58.923Z,29.41
2022-08-11T17:26:52.710Z,29.39
2022-08-11T17:29:28.715Z,29.33
2022-08-11T17:32:15.367Z,29.26
2022-08-11T17:35:04.562Z,29.30
2022-08-11T17:37:34.144Z,29.29
2022-08-11T17:40:05.381Z,29.21
2022-08-11T17:42:52.736Z,29.13
2022-08-11T17:45:56.544Z,29.09
2022-08-11T17:48:30.889Z,29.08
2022-08-11T17:51:01.722Z,29.02
2022-08-11T17:54:10.038Z,28.94
2022-08-11T17:56:56.222Z,28.80
2022-08-11T17:59:48.985Z,28.77
2022-08-11T18:02:37.551Z,28.69
2022-08-11T18:05:12.355Z,28.64
2022-08-11T18:08:00.352Z,28.57
2022-08-11T18:10:48.845Z,28.42
2022-08-11T18:13:36.252Z,28.33
2022-08-11T18:16:22.264Z,28.14
2022-08-11T18:19:11.817Z,28.25
2022-08-11T18:22:13.041Z,28.15
2022-08-11T18:25:05.507Z,28.02
2022-08-11T18:27:53.158Z,27.89
2022-08-11T18:30:42.491Z,27.71
2022-08-11T18:33:56.745Z,27.63
2022-08-11T18:36:46.486Z,27.60
2022-08-11T18:39:33.937Z,27.44
2022-08-11T18:42:29.403Z,27.34
2022-08-11T18:45:19.885Z,27.13
2022-08-11T18:48:09.289Z,27.03
2022-08-11T18:51:28.070Z,27.04
2022-08-11T18:54:10.555Z,26.97
2022-08-11T18:57:00.310Z,26.92
2022-08-11T18:59:47.420Z,26.76
2022-08-11T19:02:49.228Z,26.69
2022-08-11T19:06:32.205Z,26.41
2022-08-11T19:08:47.656Z,26.34
2022-08-11T19:11:34.868Z,26.16
2022-08-11T19:14:30.372Z,26.01
2022-08-11T19:17:44.465Z,26.16
2022-08-11T19:20:28.540Z,25.96
2022-08-11T19:23:15.428Z,25.83
2022-08-11T19:26:02.112Z,25.66
2022-08-11T19:32:06.095Z,25.23
2022-08-11T19:34:52.474Z,25.11
2022-08-11T19:37:44.461Z,25.08
2022-08-11T19:40:32.073Z,25.27
2022-08-11T19:43:23.710Z,25.24
2022-08-11T19:46:14.979Z,25.11
2022-08-11T19:49:04.008Z,25.06
2022-08-11T19:51:53.910Z,24.94
2022-08-11T19:54:44.453Z,24.80
2022-08-11T19:57:33.592Z,24.90
2022-08-11T20:00:25.511Z,24.76
2022-08-11T20:03:20.125Z,24.64
2022-08-11T20:06:10.918Z,24.60
2022-08-11T20:09:00.387Z,24.69
2022-08-11T20:11:50.235Z,24.55
2022-08-11T20:14:37.639Z,24.45
2022-08-11T20:17:29.606Z,24.26
2022-08-11T20:20:21.557Z,24.06
2022-08-11T20:23:11.046Z,23.92
2022-08-11T20:26:08.407Z,23.76
2022-08-11T20:29:03.062Z,23.65
2022-08-11T20:31:49.897Z,23.63
2022-08-11T20:34:36.510Z,23.46
2022-08-11T20:37:23.328Z,23.39
2022-08-11T20:40:12.092Z,23.27
2022-08-11T20:42:58.988Z,23.27
2022-08-11T20:45:56.802Z,23.21
2022-08-11T20:48:44.180Z,23.17
2022-08-11T20:51:36.720Z,23.17
2022-08-11T20:54:43.077Z,23.12
2022-08-11T20:57:45.754Z,23.06
2022-08-11T21:00:39.670Z,23.10
2022-08-11T21:06:34.594Z,22.95
2022-08-11T21:09:58.460Z,22.88
2022-08-11T21:12:35.237Z,22.84
2022-08-11T21:15:47.058Z,22.71
2022-08-11T21:18:29.874Z,22.70
2022-08-11T21:21:21.067Z,22.77
2022-08-11T21:24:11.156Z,22.78
2022-08-11T21:27:03.606Z,22.77
2022-08-11T21:29:53.046Z,22.86
2022-08-11T21:32:40.267Z,22.82
2022-08-11T21:35:30.584Z,22.78
2022-08-11T21:38:19.217Z,22.67
2022-08-11T21:41:06.841Z,22.58
2022-08-11T21:43:53.394Z,22.41
2022-08-11T21:46:42.863Z,22.29
2022-08-11T21:49:32.667Z,22.12
2022-08-11T21:52:23.468Z,22.00
2022-08-11T21:55:09.432Z,21.86
2022-08-11T21:57:57.037Z,21.76
2022-08-11T22:00:45.387Z,21.60
2022-08-11T22:03:41.077Z,21.63
2022-08-11T22:06:36.297Z,21.63
2022-08-11T22:09:22.954Z,21.64
2022-08-11T22:12:34.431Z,21.66
2022-08-11T22:15:17.272Z,21.60
2022-08-11T22:18:03.353Z,21.56
2022-08-11T22:20:52.145Z,21.53
2022-08-11T22:23:38.940Z,21.39
2022-08-11T22:26:25.791Z,21.41
2022-08-11T22:29:11.354Z,21.31
2022-08-11T22:31:59.263Z,21.24
2022-08-11T22:34:53.426Z,21.25
2022-08-11T22:37:42.023Z,21.17
2022-08-11T22:40:29.445Z,21.10
2022-08-11T22:43:15.511Z,20.97
2022-08-11T22:46:01.168Z,20.93
2022-08-11T22:48:49.108Z,20.89
2022-08-11T22:51:38.637Z,20.91
2022-08-11T22:54:27.328Z,20.87
2022-08-11T22:57:15.621Z,20.69
2022-08-11T23:00:04.992Z,20.76
2022-08-11T23:02:51.332Z,20.72
2022-08-11T23:05:37.861Z,20.67
2022-08-11T23:08:23.667Z,20.66
2022-08-11T23:11:11.706Z,20.55
2022-08-11T23:13:58.285Z,20.46
2022-08-11T23:16:46.687Z,20.62
2022-08-11T23:20:06.769Z,20.53
2022-08-11T23:22:50.228Z,20.50
2022-08-11T23:25:36.596Z,20.42
2022-08-11T23:28:24.691Z,20.36
2022-08-11T23:31:15.640Z,20.39
2022-08-11T23:34:04.134Z,20.38
2022-08-11T23:36:50.064Z,20.36
2022-08-11T23:39:35.515Z,20.33
2022-08-11T23:42:24.151Z,20.22
2022-08-11T23:45:15.001Z,20.27
2022-08-11T23:48:05.574Z,20.24
2022-08-11T23:50:51.932Z,20.25
2022-08-11T23:53:38.617Z,20.12
2022-08-11T23:56:26.606Z,20.17
2022-08-11T23:59:14.675Z,20.20
